createdAt,value
2022-09-24T00:00:41.682Z,95291.6
2022-09-24T00:01:43.935Z,95290.7
2022-09-24T00:02:46.748Z,95285.8
2022-09-24T00:03:49.081Z,95286.8
2022-09-24T00:04:51.275Z,95284.7
2022-09-24T00:05:53.785Z,95278.9
2022-09-24T00:06:56.049Z,95280.6
2022-09-24T00:07:58.528Z,95279.3
2022-09-24T00:09:00.735Z,95282.4
2022-09-24T00:10:02.993Z,95274.9
2022-09-24T00:11:05.476Z,95274.8
2022-09-24T00:12:07.421Z,95269.6
2022-09-24T00:13:09.889Z,95271.9
2022-09-24T00:14:12.604Z,95267.5
2022-09-24T00:15:14.519Z,95271.9
2022-09-24T00:16:17.311Z,95278.3
2022-09-24T00:17:19.410Z,95277.4
2022-09-24T00:18:21.653Z,95277.5
2022-09-24T00:19:23.843Z,95276.6
2022-09-24T00:20:25.491Z,95281.1
2022-09-24T00:21:27.419Z,95282.8
2022-09-24T00:22:29.897Z,95281.2
2022-09-24T00:23:32.361Z,95278.8
2022-09-24T00:24:34.840Z,95277.9
2022-09-24T00:25:37.347Z,95278.4
2022-09-24T00:26:39.578Z,95277.8
2022-09-24T00:27:41.795Z,95275.7
2022-09-24T00:28:43.998Z,95275.3
2022-09-24T00:29:46.478Z,95273
2022-09-24T00:30:48.945Z,95275
2022-09-24T00:31:51.249Z,95277.8
2022-09-24T00:32:53.556Z,95276.7
2022-09-24T00:33:56.036Z,95275
2022-09-24T00:34:58.509Z,95268.8
2022-09-24T00:36:00.982Z,95268.8
2022-09-24T00:37:02.977Z,95269.3
2022-09-24T00:38:05.445Z,95273.3
2022-09-24T00:39:07.919Z,95266.4
2022-09-24T00:40:10.399Z,95264.8
2022-09-24T00:41:12.803Z,95265
2022-09-24T00:42:15.286Z,95261.9
2022-09-24T00:43:17.535Z,95262.2
2022-09-24T00:44:19.999Z,95261.5
2022-09-24T00:45:22.191Z,95254.5
2022-09-24T00:46:24.956Z,95258.9
2022-09-24T00:47:26.961Z,95257
2022-09-24T00:48:29.434Z,95256.3
2022-09-24T00:49:31.897Z,95257.6
2022-09-24T00:50:34.098Z,95257
2022-09-24T00:51:36.582Z,95259.1
2022-09-24T00:52:38.809Z,95258.9
2022-09-24T00:53:40.996Z,95261
2022-09-24T00:54:42.945Z,95262.1
2022-09-24T00:55:45.417Z,95266
2022-09-24T00:56:47.748Z,95259.1
2022-09-24T00:57:49.658Z,95258.5
2022-09-24T00:58:51.889Z,95255.2
2022-09-24T00:59:54.097Z,95249.3
2022-09-24T01:00:56.780Z,95249.6
2022-09-24T01:01:59.968Z,95250.2
2022-09-24T01:03:02.527Z,95248
2022-09-24T01:04:04.914Z,95252.7
2022-09-24T01:05:06.952Z,95249.2
2022-09-24T01:06:09.417Z,95248.3
2022-09-24T01:07:11.926Z,95246.4
2022-09-24T01:08:14.414Z,95241.5
2022-09-24T01:09:16.607Z,95242.7
2022-09-24T01:10:18.801Z,95244.2
2022-09-24T01:11:21.272Z,95239.5
2022-09-24T01:12:23.776Z,95242
2022-09-24T01:13:25.739Z,95236.4
2022-09-24T01:14:27.694Z,95240.7
2022-09-24T01:15:29.896Z,95239.3
2022-09-24T01:16:32.539Z,95238.2
2022-09-24T01:17:34.896Z,95241.7
2022-09-24T01:18:37.383Z,95236
2022-09-24T01:19:39.884Z,95238.2
2022-09-24T01:20:42.347Z,95241
2022-09-24T01:21:44.549Z,95238.7
2022-09-24T01:22:46.736Z,95238.5
2022-09-24T01:23:50.425Z,95233.8
2022-09-24T01:24:52.892Z,95230.8
2022-09-24T01:25:55.090Z,95232.1
2022-09-24T01:26:57.278Z,95229.2
2022-09-24T01:27:59.505Z,95224.9
2022-09-24T01:29:01.989Z,95228
2022-09-24T01:30:04.207Z,95226.6
2022-09-24T01:31:06.673Z,95225.5
2022-09-24T01:32:09.280Z,95222
2022-09-24T01:33:11.201Z,95224.1
2022-09-24T01:34:13.668Z,95221.1
2022-09-24T01:35:16.130Z,95217.5
2022-09-24T01:36:18.612Z,95222.2
2022-09-24T01:37:20.512Z,95221.1
2022-09-24T01:38:22.985Z,95221.4
2022-09-24T01:39:25.211Z,95216.2
2022-09-24T01:40:27.673Z,95214.5
2022-09-24T01:41:29.960Z,95219.2
2022-09-24T01:42:32.154Z,95212.8
2022-09-24T01:43:34.673Z,95210
2022-09-24T01:44:37.158Z,95215.4
2022-09-24T01:45:39.370Z,95210.6
2022-09-24T01:46:42.335Z,95213.9
2022-09-24T01:47:44.667Z,95207.9
2022-09-24T01:48:46.610Z,95210
2022-09-24T01:49:49.074Z,95204.3
2022-09-24T01:50:50.984Z,95206.2
2022-09-24T01:51:53.461Z,95204.4
2022-09-24T01:52:55.926Z,95204.9
2022-09-24T01:53:58.126Z,95204
2022-09-24T01:55:00.351Z,95201.7
2022-09-24T01:56:02.261Z,95203.3
2022-09-24T01:57:04.433Z,95202.6
2022-09-24T01:58:06.628Z,95200.9
2022-09-24T01:59:09.151Z,95201.1
2022-09-24T02:00:11.648Z,95199.2
2022-09-24T02:01:13.916Z,95201.7
2022-09-24T02:02:16.865Z,95199.4
2022-09-24T02:03:19.423Z,95201
2022-09-24T02:04:21.906Z,95198
2022-09-24T02:05:23.828Z,95196.6
2022-09-24T02:06:25.760Z,95199.5
2022-09-24T02:07:28.223Z,95191.7
2022-09-24T02:08:30.699Z,95193.5
2022-09-24T02:09:32.590Z,95190
2022-09-24T02:10:34.815Z,95185.8
2022-09-24T02:11:37.278Z,95183.3
2022-09-24T02:12:39.515Z,95187.9
2022-09-24T02:13:41.705Z,95187.5
2022-09-24T02:14:43.925Z,95185.5
2022-09-24T02:15:46.332Z,95181.5
2022-09-24T02:16:48.926Z,95177.8
2022-09-24T02:17:50.856Z,95176.4
2022-09-24T02:18:53.062Z,95175.8
2022-09-24T02:19:55.251Z,95176.1
2022-09-24T02:20:57.444Z,95176.6
2022-09-24T02:21:59.914Z,95176.3
2022-09-24T02:23:02.397Z,95178.8
2022-09-24T02:24:04.997Z,95181.6
2022-09-24T02:25:06.639Z,95178.6
2022-09-24T02:26:08.280Z,95180.1
2022-09-24T02:27:10.466Z,95178
2022-09-24T02:28:12.658Z,95174.4
2022-09-24T02:29:14.299Z,95171.7
2022-09-24T02:30:16.823Z,95167.7
2022-09-24T02:31:19.379Z,95169.2
2022-09-24T02:32:21.970Z,95165.6
2022-09-24T02:33:24.167Z,95167.6
2022-09-24T02:34:26.391Z,95164
2022-09-24T02:35:28.863Z,95165.3
2022-09-24T02:36:31.331Z,95163.2
2022-09-24T02:37:33.798Z,95168.6
2022-09-24T02:38:35.445Z,95169.3
2022-09-24T02:39:37.084Z,95168.6
2022-09-24T02:40:39.833Z,95172.4
2022-09-24T02:41:42.187Z,95169.3
2022-09-24T02:42:44.669Z,95173.2
2022-09-24T02:43:46.862Z,95168.5
2022-09-24T02:44:49.069Z,95167.3
2022-09-24T02:45:51.571Z,95166
2022-09-24T02:46:54.474Z,95162.2
2022-09-24T02:47:57.163Z,95166.2
2022-09-24T02:48:59.372Z,95165.2
2022-09-24T02:50:01.864Z,95164.6
2022-09-24T02:51:04.049Z,95160.3
2022-09-24T02:52:05.962Z,95168
2022-09-24T02:53:08.436Z,95164
2022-09-24T02:54:10.956Z,95162.4
2022-09-24T02:55:13.267Z,95163
2022-09-24T02:56:15.751Z,95159.6
2022-09-24T02:57:18.338Z,95162.7
2022-09-24T02:58:20.800Z,95160
2022-09-24T02:59:23.021Z,95158.2
2022-09-24T03:00:25.205Z,95157.3
2022-09-24T03:01:28.017Z,95150.6
2022-09-24T03:02:30.922Z,95149.8
2022-09-24T03:03:33.448Z,95151.7
2022-09-24T03:04:35.633Z,95152.1
2022-09-24T03:05:37.827Z,95153.6
2022-09-24T03:06:39.744Z,95152.4
2022-09-24T03:07:42.242Z,95153.5
2022-09-24T03:08:44.727Z,95151.2
2022-09-24T03:09:46.630Z,95155.3
2022-09-24T03:10:48.821Z,95154.8
2022-09-24T03:11:51.296Z,95155.3
2022-09-24T03:12:53.790Z,95157.8
2022-09-24T03:13:56.266Z,95155
2022-09-24T03:14:58.464Z,95154.7
2022-09-24T03:16:01.240Z,95155.8
2022-09-24T03:17:03.965Z,95156
2022-09-24T03:18:06.169Z,95153.6
2022-09-24T03:19:07.924Z,95155.6
2022-09-24T03:20:10.403Z,95154.1
2022-09-24T03:21:12.589Z,95155.9
2022-09-24T03:22:14.797Z,95161.2
2022-09-24T03:23:16.975Z,95159.5
2022-09-24T03:24:19.257Z,95159.9
2022-09-24T03:25:21.471Z,95161
2022-09-24T03:26:23.669Z,95158.9
2022-09-24T03:27:25.592Z,95163.6
2022-09-24T03:28:28.089Z,95160.8
2022-09-24T03:29:30.282Z,95158.9
2022-09-24T03:30:32.761Z,95156
2022-09-24T03:31:35.582Z,95160.2
2022-09-24T03:32:38.282Z,95155.7
2022-09-24T03:33:40.228Z,95157.9
2022-09-24T03:34:42.445Z,95156.6
2022-09-24T03:35:44.090Z,95153.9
2022-09-24T03:36:45.980Z,95152.7
2022-09-24T03:38:53.174Z,95153.1
2022-09-24T03:39:55.652Z,95151.9
2022-09-24T03:40:58.329Z,95154.8
2022-09-24T03:42:00.708Z,95158.2
2022-09-24T03:43:03.182Z,95156.1
2022-09-24T03:44:05.941Z,95155.5
2022-09-24T03:45:08.154Z,95155.9
2022-09-24T03:46:10.695Z,95154.1
2022-09-24T03:47:12.919Z,95159.9
2022-09-24T03:48:15.460Z,95157.7
2022-09-24T03:49:17.948Z,95156
2022-09-24T03:50:20.463Z,95158.1
2022-09-24T03:51:22.937Z,95155
2022-09-24T03:52:25.123Z,95150.3
2022-09-24T03:53:27.319Z,95150
2022-09-24T03:54:29.531Z,95147.3
2022-09-24T03:55:31.724Z,95143.4
2022-09-24T03:56:33.638Z,95142.9
2022-09-24T03:57:35.821Z,95144.2
2022-09-24T03:58:37.739Z,95147.5
2022-09-24T03:59:40.246Z,95141.5
2022-09-24T04:00:42.618Z,95143.9
2022-09-24T04:01:45.290Z,95141.8
2022-09-24T04:02:47.071Z,95140.5
2022-09-24T04:03:49.441Z,95136.3
2022-09-24T04:04:52.033Z,95139
2022-09-24T04:05:54.242Z,95137
2022-09-24T04:06:56.748Z,95136.4
2022-09-24T04:07:58.665Z,95138
2022-09-24T04:09:01.140Z,95137.3
2022-09-24T04:10:03.610Z,95132.1
2022-09-24T04:11:06.090Z,95133.6
2022-09-24T04:12:08.576Z,95128.7
2022-09-24T04:13:10.777Z,95129.3
2022-09-24T04:14:12.631Z,95129.3
2022-09-24T04:15:15.155Z,95125.8
2022-09-24T04:16:17.637Z,95125.6
2022-09-24T04:17:20.287Z,95126.1
2022-09-24T04:18:22.757Z,95125.8
2022-09-24T04:19:25.027Z,95126.6
2022-09-24T04:20:27.518Z,95125
2022-09-24T04:21:30.033Z,95122.7
2022-09-24T04:22:32.263Z,95119.3
2022-09-24T04:23:34.734Z,95120.2
2022-09-24T04:24:36.648Z,95125.2
2022-09-24T04:25:39.111Z,95124.8
2022-09-24T04:26:41.301Z,95123.1
2022-09-24T04:27:43.482Z,95123.3
2022-09-24T04:28:45.951Z,95119
2022-09-24T04:29:47.870Z,95122.2
2022-09-24T04:30:50.184Z,95118.4
2022-09-24T04:31:53.196Z,95121.7
2022-09-24T04:32:55.923Z,95121.7
2022-09-24T04:33:58.142Z,95119
2022-09-24T04:36:08.060Z,95119.3
2022-09-24T04:37:10.358Z,95118
2022-09-24T04:38:12.838Z,95123.7
2022-09-24T04:39:15.305Z,95119.3
2022-09-24T04:40:18.142Z,95121.5
2022-09-24T04:41:20.747Z,95125.8
2022-09-24T04:42:22.656Z,95126.5
2022-09-24T04:43:25.147Z,95126.8
2022-09-24T04:44:27.616Z,95129.3
2022-09-24T04:45:29.831Z,95128.6
2022-09-24T04:46:32.823Z,95120.6
2022-09-24T04:47:35.460Z,95123.4
2022-09-24T04:48:37.929Z,95119
2022-09-24T04:49:40.462Z,95116.3
2022-09-24T04:51:47.709Z,95121.3
2022-09-24T04:52:49.940Z,95112.8
2022-09-24T04:53:52.432Z,95113.7
2022-09-24T04:54:54.652Z,95115.4
2022-09-24T04:55:56.889Z,95109.7
2022-09-24T04:56:59.373Z,95112.6
2022-09-24T04:58:01.004Z,95112
2022-09-24T04:59:03.081Z,95114
2022-09-24T05:00:05.028Z,95111.9
2022-09-24T05:01:07.202Z,95108.5
2022-09-24T05:02:11.747Z,95111.8
2022-09-24T05:03:14.811Z,95110.3
2022-09-24T05:04:17.475Z,95109.1
2022-09-24T05:05:19.128Z,95105.5
2022-09-24T05:06:23.491Z,95107.4
2022-09-24T05:07:25.584Z,95104.8
2022-09-24T05:08:27.824Z,95107.4
2022-09-24T05:09:29.751Z,95103.8
2022-09-24T05:10:32.222Z,95108.2
2022-09-24T05:11:34.715Z,95107.4
2022-09-24T05:12:37.235Z,95102.3
2022-09-24T05:13:39.735Z,95102
2022-09-24T05:14:41.932Z,95102.5
2022-09-24T05:15:45.353Z,95100.6
2022-09-24T05:16:47.651Z,95099.1
2022-09-24T05:17:49.920Z,95100.5
2022-09-24T05:18:52.110Z,95100
2022-09-24T05:19:54.039Z,95100.2
2022-09-24T05:20:56.518Z,95102.1
2022-09-24T05:21:58.532Z,95101.7
2022-09-24T05:23:01.209Z,95105.8
2022-09-24T05:24:03.800Z,95106.3
2022-09-24T05:25:06.287Z,95111.1
2022-09-24T05:26:08.486Z,95107.3
2022-09-24T05:27:10.656Z,95107.9
2022-09-24T05:28:12.917Z,95105.1
2022-09-24T05:29:15.111Z,95103
2022-09-24T05:30:17.335Z,95099.8
2022-09-24T05:31:19.290Z,95103.5
2022-09-24T05:32:21.560Z,95102.9
2022-09-24T05:33:24.075Z,95102
2022-09-24T05:34:25.995Z,95106.8
2022-09-24T05:35:28.210Z,95108.2
2022-09-24T05:36:30.410Z,95107.8
2022-09-24T05:37:32.905Z,95107.9
2022-09-24T05:38:35.468Z,95112
2022-09-24T05:39:42.426Z,95110
2022-09-24T05:40:44.765Z,95115.3
2022-09-24T05:41:47.353Z,95112.9
2022-09-24T05:42:49.266Z,95112.9
2022-09-24T05:43:51.375Z,95112.8
2022-09-24T05:44:53.782Z,95111.2
2022-09-24T05:45:56.050Z,95113.6
2022-09-24T05:46:58.977Z,95114.9
2022-09-24T05:48:01.349Z,95119.1
2022-09-24T05:49:03.941Z,95116.1
2022-09-24T05:50:05.903Z,95119.5
2022-09-24T05:51:07.850Z,95113.8
2022-09-24T05:52:09.783Z,95115
2022-09-24T05:53:12.177Z,95112
2022-09-24T05:54:14.410Z,95110.9
2022-09-24T05:55:16.640Z,95115.6
2022-09-24T05:56:19.163Z,95116.3
2022-09-24T05:57:21.644Z,95117.2
2022-09-24T05:58:23.282Z,95117.7
2022-09-24T05:59:25.749Z,95118.4
2022-09-24T06:00:27.733Z,95112.9
2022-09-24T06:01:30.601Z,95115.1
2022-09-24T06:02:32.936Z,95117.2
2022-09-24T06:03:35.608Z,95114.6
2022-09-24T06:04:37.589Z,95114.9
2022-09-24T06:05:40.092Z,95120.3
2022-09-24T06:06:42.578Z,95116.5
2022-09-24T06:07:45.069Z,95118.7
2022-09-24T06:08:47.285Z,95119.4
2022-09-24T06:09:49.617Z,95116.8
2022-09-24T06:10:51.901Z,95120
2022-09-24T06:11:54.380Z,95117.2
2022-09-24T06:12:56.049Z,95119.6
2022-09-24T06:13:57.985Z,95119.3
2022-09-24T06:14:59.907Z,95120.8
2022-09-24T06:16:02.541Z,95122.3
2022-09-24T06:17:04.652Z,95121.6
2022-09-24T06:18:07.237Z,95120.5
2022-09-24T06:19:09.762Z,95118.7
2022-09-24T06:20:12.125Z,95126.5
2022-09-24T06:21:14.335Z,95127.5
2022-09-24T06:22:16.541Z,95121.8
2022-09-24T06:23:18.754Z,95120.6
2022-09-24T06:24:20.978Z,95118.9
2022-09-24T06:25:23.272Z,95121.8
2022-09-24T06:26:25.215Z,95120.6
2022-09-24T06:27:27.687Z,95119.8
2022-09-24T06:28:30.160Z,95120.6
2022-09-24T06:29:32.631Z,95122.1
2022-09-24T06:30:34.840Z,95119.1
2022-09-24T06:31:37.138Z,95122.1
2022-09-24T06:32:39.455Z,95117.6
2022-09-24T06:33:41.387Z,95121.6
2022-09-24T06:34:43.610Z,95121.3
2022-09-24T06:35:46.205Z,95119.4
2022-09-24T06:36:48.397Z,95121.3
2022-09-24T06:37:50.868Z,95118.3
2022-09-24T06:38:52.767Z,95121.8
2022-09-24T06:39:54.976Z,95124
2022-09-24T06:40:57.559Z,95123.5
2022-09-24T06:41:59.954Z,95122.7
2022-09-24T06:43:01.861Z,95125.1
2022-09-24T06:44:04.076Z,95124.5
2022-09-24T06:45:06.274Z,95125.8
2022-09-24T06:46:08.813Z,95124.1
2022-09-24T06:47:11.110Z,95126.7
2022-09-24T06:48:13.291Z,95129.8
2022-09-24T06:49:15.213Z,95127.8
2022-09-24T06:50:17.155Z,95130.8
2022-09-24T06:51:19.494Z,95129
2022-09-24T06:52:21.702Z,95129.6
2022-09-24T06:53:23.347Z,95133
2022-09-24T06:54:25.560Z,95129.9
2022-09-24T06:55:27.792Z,95130.4
2022-09-24T06:56:30.302Z,95135.3
2022-09-24T06:57:32.796Z,95135.6
2022-09-24T06:58:35.290Z,95136.3
2022-09-24T06:59:37.498Z,95135.8
2022-09-24T07:00:40.004Z,95134.8
2022-09-24T07:01:42.923Z,95135
2022-09-24T07:02:45.081Z,95136.5
2022-09-24T07:03:47.554Z,95142.7
2022-09-24T07:04:50.069Z,95137.2
2022-09-24T07:05:52.271Z,95140.4
2022-09-24T07:06:54.234Z,95145.5
2022-09-24T07:07:56.712Z,95144.3
2022-09-24T07:08:59.187Z,95147.6
2022-09-24T07:10:01.129Z,95143.1
2022-09-24T07:11:03.642Z,95141.4
2022-09-24T07:12:05.884Z,95145.1
2022-09-24T07:13:08.388Z,95143.3
2022-09-24T07:14:10.586Z,95143.8
2022-09-24T07:15:12.772Z,95141.9
2022-09-24T07:16:15.477Z,95141.5
2022-09-24T07:17:17.772Z,95145.6
2022-09-24T07:18:19.711Z,95144.6
2022-09-24T07:19:21.946Z,95143.9
2022-09-24T07:20:24.446Z,95148.5
2022-09-24T07:21:25.977Z,95148.9
2022-09-24T07:22:28.487Z,95154.1
2022-09-24T07:23:30.961Z,95149.6
2022-09-24T07:24:33.454Z,95148.8
2022-09-24T07:25:35.667Z,95146.4
2022-09-24T07:26:38.248Z,95152.3
2022-09-24T07:27:40.468Z,95153.3
2022-09-24T07:28:42.688Z,95152.1
2022-09-24T07:29:45.159Z,95156.6
2022-09-24T07:30:47.380Z,95154
2022-09-24T07:31:50.337Z,95153.9
2022-09-24T07:32:52.613Z,95156.6
2022-09-24T07:33:55.091Z,95160.7
2022-09-24T07:34:57.565Z,95162.3
2022-09-24T07:35:59.771Z,95165.7
2022-09-24T07:37:02.263Z,95164.8
2022-09-24T07:38:04.506Z,95165.1
2022-09-24T07:39:06.708Z,95168.9
2022-09-24T07:40:09.412Z,95170.5
2022-09-24T07:41:11.770Z,95169.3
2022-09-24T07:42:14.087Z,95167.5
2022-09-24T07:43:16.433Z,95170.8
2022-09-24T07:44:18.391Z,95170.6
2022-09-24T07:45:20.889Z,95167.6
2022-09-24T07:46:23.311Z,95174.6
2022-09-24T07:47:25.620Z,95170.3
2022-09-24T07:48:42.200Z,95175.3
2022-09-24T07:49:44.127Z,95177.5
2022-09-24T07:50:46.367Z,95177.5
2022-09-24T07:51:48.001Z,95181.9
2022-09-24T07:52:50.204Z,95179.3
2022-09-24T07:53:52.781Z,95186
2022-09-24T07:54:54.411Z,95182.7
2022-09-24T07:55:56.325Z,95183.4
2022-09-24T07:56:58.803Z,95186
2022-09-24T07:58:01.012Z,95189
2022-09-24T07:59:03.619Z,95188.8
2022-09-24T08:00:06.104Z,95189.5
2022-09-24T08:01:08.378Z,95185.2
2022-09-24T08:02:11.178Z,95187.3
2022-09-24T08:03:13.528Z,95191.7
2022-09-24T08:04:15.996Z,95190.3
2022-09-24T08:05:18.083Z,95194.3
2022-09-24T08:06:20.602Z,95194.5
2022-09-24T08:07:22.790Z,95192.5
2022-09-24T08:08:24.988Z,95191.2
2022-09-24T08:09:26.927Z,95192.3
2022-09-24T08:10:29.442Z,95189.9
2022-09-24T08:11:31.925Z,95195
2022-09-24T08:12:33.886Z,95191.8
2022-09-24T08:13:36.137Z,95189
2022-09-24T08:14:38.093Z,95189.6
2022-09-24T08:15:40.870Z,95188.6
2022-09-24T08:16:43.070Z,95183.7
2022-09-24T08:17:45.004Z,95183
2022-09-24T08:18:46.912Z,95181
2022-09-24T08:19:49.392Z,95185
2022-09-24T08:20:51.875Z,95187.1
2022-09-24T08:21:54.411Z,95190
2022-09-24T08:22:56.614Z,95187.7
2022-09-24T08:23:59.089Z,95188.9
2022-09-24T08:25:01.592Z,95188.3
2022-09-24T08:26:03.917Z,95188.3
2022-09-24T08:27:05.842Z,95188.8
2022-09-24T08:28:07.755Z,95186.3
2022-09-24T08:29:10.254Z,95189.1
2022-09-24T08:30:12.574Z,95191.7
2022-09-24T08:31:15.396Z,95191.3
2022-09-24T08:32:17.493Z,95187
2022-09-24T08:33:19.400Z,95190
2022-09-24T08:34:21.600Z,95191.3
2022-09-24T08:35:23.248Z,95191.3
2022-09-24T08:36:25.183Z,95195
2022-09-24T08:37:27.359Z,95199.4
2022-09-24T08:38:29.570Z,95196.5
2022-09-24T08:39:31.794Z,95200.4
2022-09-24T08:40:34.752Z,95191.9
2022-09-24T08:41:37.381Z,95196.6
2022-09-24T08:42:39.595Z,95195.5
2022-09-24T08:43:41.802Z,95197.9
2022-09-24T08:44:44.293Z,95195.5
2022-09-24T08:45:46.538Z,95193.7
2022-09-24T08:46:49.020Z,95190.9
2022-09-24T08:47:51.355Z,95193.6
2022-09-24T08:48:52.710Z,95188.6
2022-09-24T08:49:55.192Z,95191.5
2022-09-24T08:50:57.116Z,95192.9
2022-09-24T08:51:59.302Z,95191.2
2022-09-24T08:53:01.514Z,95190.9
2022-09-24T08:54:04.090Z,95188.9
2022-09-24T08:55:06.408Z,95194.2
2022-09-24T08:56:08.917Z,95192.8
2022-09-24T08:57:11.377Z,95194.3
2022-09-24T08:58:13.288Z,95199.4
2022-09-24T08:59:15.770Z,95197.9
2022-09-24T09:00:18.307Z,95199.2
2022-09-24T09:01:20.980Z,95200.7
2022-09-24T09:02:24.242Z,95199.7
2022-09-24T09:03:26.994Z,95201.5
2022-09-24T09:04:29.471Z,95203
2022-09-24T09:05:31.665Z,95204.6
2022-09-24T09:06:33.894Z,95208
2022-09-24T09:07:35.526Z,95207.4
2022-09-24T09:09:42.717Z,95211.3
2022-09-24T09:10:44.930Z,95205.7
2022-09-24T09:11:47.432Z,95209.3
2022-09-24T09:12:49.607Z,95208.7
2022-09-24T09:13:51.780Z,95207.4
2022-09-24T09:14:54.248Z,95210.7
2022-09-24T09:15:56.480Z,95215.4
2022-09-24T09:16:58.771Z,95221.1
2022-09-24T09:18:01.312Z,95218.5
2022-09-24T09:19:03.629Z,95223.9
2022-09-24T09:20:06.135Z,95217.5
2022-09-24T09:21:08.622Z,95217
2022-09-24T09:22:11.112Z,95220.3
2022-09-24T09:23:13.307Z,95214.4
2022-09-24T09:24:15.503Z,95215.5
2022-09-24T09:25:17.696Z,95220.6
2022-09-24T09:26:19.891Z,95215.2
2022-09-24T09:27:22.140Z,95216.2
2022-09-24T09:28:24.615Z,95215.9
2022-09-24T09:29:26.828Z,95213.1
2022-09-24T09:30:28.758Z,95222.9
2022-09-24T09:31:31.440Z,95222.8
2022-09-24T09:32:34.145Z,95220.9
2022-09-24T09:33:36.447Z,95220.6
2022-09-24T09:34:38.917Z,95218.5
2022-09-24T09:35:40.844Z,95222.2
2022-09-24T09:36:43.038Z,95223.3
2022-09-24T09:37:45.247Z,95220.8
2022-09-24T09:38:47.157Z,95228.9
2022-09-24T09:39:49.375Z,95227.4
2022-09-24T09:40:52.216Z,95220.1
2022-09-24T09:41:54.844Z,95228.4
2022-09-24T09:42:57.151Z,95224.7
2022-09-24T09:43:59.355Z,95224.3
2022-09-24T09:45:01.582Z,95230.9
2022-09-24T09:46:04.104Z,95226
2022-09-24T09:47:06.532Z,95227.1
2022-09-24T09:48:08.496Z,95225.5
2022-09-24T09:49:10.457Z,95224.4
2022-09-24T09:50:12.669Z,95225.5
2022-09-24T09:52:20.842Z,95225.8
2022-09-24T09:53:23.085Z,95229.9
2022-09-24T09:54:25.553Z,95226.7
2022-09-24T09:55:28.031Z,95227.1
2022-09-24T09:56:30.221Z,95225.2
2022-09-24T09:57:32.695Z,95221.9
2022-09-24T09:58:34.897Z,95224.2
2022-09-24T09:59:36.820Z,95225
2022-09-24T10:00:39.294Z,95221.9
2022-09-24T10:01:41.957Z,95221.1
2022-09-24T10:02:45.452Z,95225.7
2022-09-24T10:03:47.870Z,95220.6
2022-09-24T10:05:55.365Z,95224.8
2022-09-24T10:06:57.606Z,95225.7
2022-09-24T10:07:59.796Z,95227
2022-09-24T10:09:01.997Z,95232.1
2022-09-24T10:10:04.216Z,95233.5
2022-09-24T10:11:06.595Z,95233.2
2022-09-24T10:12:08.937Z,95234.5
2022-09-24T10:13:11.230Z,95234.4
2022-09-24T10:14:13.647Z,95228.4
2022-09-24T10:15:16.146Z,95230.8
2022-09-24T10:16:18.484Z,95232.2
2022-09-24T10:17:21.033Z,95230.9
2022-09-24T10:18:23.545Z,95231.6
2022-09-24T10:19:25.886Z,95229.4
2022-09-24T10:20:28.366Z,95225.9
2022-09-24T10:21:30.594Z,95220.6
2022-09-24T10:22:32.790Z,95223.2
2022-09-24T10:23:34.696Z,95220.4
2022-09-24T10:24:37.190Z,95224.1
2022-09-24T10:25:39.379Z,95226.5
2022-09-24T10:27:46.850Z,95228.9
2022-09-24T10:28:49.323Z,95229
2022-09-24T10:29:51.555Z,95227.9
2022-09-24T10:30:54.378Z,95224.4
2022-09-24T10:31:56.963Z,95229.1
2022-09-24T10:32:59.159Z,95228.8
2022-09-24T10:34:01.444Z,95227.1
2022-09-24T10:35:03.575Z,95223.3
2022-09-24T10:36:06.190Z,95223.4
2022-09-24T10:38:13.675Z,95228.4
2022-09-24T10:39:16.155Z,95226.6
2022-09-24T10:40:18.592Z,95227.3
2022-09-24T10:41:20.923Z,95229.9
2022-09-24T10:42:23.402Z,95226
2022-09-24T10:43:25.951Z,95224.7
2022-09-24T10:44:27.879Z,95224.6
2022-09-24T10:45:29.818Z,95223.7
2022-09-24T10:46:32.311Z,95222.4
2022-09-24T10:47:34.857Z,95219.8
2022-09-24T10:48:36.794Z,95224.7
2022-09-24T10:49:39.301Z,95223.3
2022-09-24T10:50:41.256Z,95225
2022-09-24T10:51:43.511Z,95224.8
2022-09-24T10:52:45.747Z,95224.5
2022-09-24T10:53:47.971Z,95228.7
2022-09-24T10:54:50.176Z,95225.6
2022-09-24T10:55:52.397Z,95233.8
2022-09-24T10:56:54.878Z,95228
2022-09-24T10:57:57.087Z,95226.8
2022-09-24T10:58:59.257Z,95233.6
2022-09-24T11:00:01.460Z,95231.9
2022-09-24T11:01:03.978Z,95233.1
2022-09-24T11:02:06.972Z,95233.1
2022-09-24T11:03:10.023Z,95235.8
2022-09-24T11:04:12.279Z,95232.8
2022-09-24T11:05:14.706Z,95230.2
2022-09-24T11:06:17.227Z,95230.5
2022-09-24T11:07:19.727Z,95230.7
2022-09-24T11:08:21.657Z,95230.3
2022-09-24T11:09:24.128Z,95236.3
2022-09-24T11:10:26.062Z,95235.8
2022-09-24T11:11:28.254Z,95235.3
2022-09-24T11:12:30.459Z,95233.7
2022-09-24T11:13:32.378Z,95232.1
2022-09-24T11:14:34.869Z,95231
2022-09-24T11:15:37.618Z,95226
2022-09-24T11:16:40.250Z,95225.4
2022-09-24T11:17:42.442Z,95225.9
2022-09-24T11:18:44.946Z,95228.4
2022-09-24T11:19:47.140Z,95225.4
2022-09-24T11:20:49.417Z,95225.2
2022-09-24T11:21:52.069Z,95222
2022-09-24T11:22:54.384Z,95224.8
2022-09-24T11:23:56.856Z,95225
2022-09-24T11:24:59.061Z,95222.8
2022-09-24T11:26:01.257Z,95218.6
2022-09-24T11:27:03.188Z,95220.2
2022-09-24T11:28:05.613Z,95220.8
2022-09-24T11:29:08.093Z,95218
2022-09-24T11:30:10.046Z,95216.1
2022-09-24T11:31:12.184Z,95215.7
2022-09-24T11:32:14.801Z,95216
2022-09-24T11:34:22.263Z,95214.2
2022-09-24T11:35:24.181Z,95214.1
2022-09-24T11:36:26.427Z,95215
2022-09-24T11:37:28.765Z,95216.5
2022-09-24T11:38:30.713Z,95217.8
2022-09-24T11:39:33.211Z,95217.2
2022-09-24T11:40:36.132Z,95221.5
2022-09-24T11:41:38.738Z,95214.2
2022-09-24T11:42:40.640Z,95213.2
2022-09-24T11:43:42.874Z,95213.3
2022-09-24T11:44:45.134Z,95213.4
2022-09-24T11:45:47.635Z,95210.7
2022-09-24T11:46:50.305Z,95210.4
2022-09-24T11:47:53.004Z,95211.1
2022-09-24T11:48:55.191Z,95209.9
2022-09-24T11:49:57.747Z,95210.6
2022-09-24T11:51:00.062Z,95208.8
2022-09-24T11:52:02.585Z,95214.5
2022-09-24T11:53:04.347Z,95212.9
2022-09-24T11:54:07.085Z,95218.6
2022-09-24T11:55:09.448Z,95216.2
2022-09-24T11:57:17.212Z,95216.4
2022-09-24T11:58:19.137Z,95217.8
2022-09-24T11:59:20.795Z,95215
2022-09-24T12:00:23.148Z,95216.7
2022-09-24T12:01:25.537Z,95216.5
2022-09-24T12:02:28.386Z,95217.5
2022-09-24T12:03:31.140Z,95213.8
2022-09-24T12:04:33.445Z,95213.3
2022-09-24T12:05:35.367Z,95214.1
2022-09-24T12:06:37.878Z,95214.7
2022-09-24T12:07:39.925Z,95216.1
2022-09-24T12:08:42.467Z,95214.9
2022-09-24T12:09:44.678Z,95217.8
2022-09-24T12:10:46.614Z,95214.2
2022-09-24T12:11:49.077Z,95213.4
2022-09-24T12:12:51.052Z,95219
2022-09-24T12:13:53.529Z,95213.7
2022-09-24T12:14:56.020Z,95213.1
2022-09-24T12:15:58.490Z,95209.5
2022-09-24T12:17:00.770Z,95214.1
2022-09-24T12:18:03.253Z,95211.1
2022-09-24T12:19:05.756Z,95204.8
2022-09-24T12:20:08.221Z,95207.7
2022-09-24T12:21:10.705Z,95207.7
2022-09-24T12:22:12.910Z,95202.7
2022-09-24T12:23:15.128Z,95203.3
2022-09-24T12:24:17.426Z,95200.1
2022-09-24T12:25:19.650Z,95199.7
2022-09-24T12:26:21.843Z,95201.5
2022-09-24T12:27:24.334Z,95198.1
2022-09-24T12:28:27.289Z,95197.1
2022-09-24T12:29:29.619Z,95197.7
2022-09-24T12:30:32.101Z,95197.5
2022-09-24T12:31:34.363Z,95196.3
2022-09-24T12:32:36.634Z,95196.2
2022-09-24T12:33:38.823Z,95195.7
2022-09-24T12:34:41.357Z,95196.8
2022-09-24T12:35:43.564Z,95194.8
2022-09-24T12:36:45.761Z,95194.1
2022-09-24T12:37:48.234Z,95190.7
2022-09-24T12:38:50.730Z,95185.9
2022-09-24T12:39:53.256Z,95187.2
2022-09-24T12:40:55.803Z,95186
2022-09-24T12:41:57.569Z,95190.4
2022-09-24T12:42:59.467Z,95185.9
2022-09-24T12:44:01.770Z,95188.7
2022-09-24T12:45:03.859Z,95186
2022-09-24T12:46:06.578Z,95188.2
2022-09-24T12:47:09.342Z,95187.6
2022-09-24T12:48:11.821Z,95184.3
2022-09-24T12:49:14.324Z,95187.8
2022-09-24T12:50:16.290Z,95185.6
2022-09-24T12:51:18.762Z,95187.5